createdAt,value
2022-10-30T00:00:00.427Z,15.01
2022-10-30T00:01:00.424Z,15.02
2022-10-30T00:02:00.524Z,15.02
2022-10-30T00:03:00.842Z,15.03
2022-10-30T00:04:00.427Z,15.02
2022-10-30T00:05:00.349Z,15.01
2022-10-30T00:06:00.338Z,14.99
2022-10-30T00:07:00.333Z,14.98
2022-10-30T00:08:00.777Z,14.95
2022-10-30T00:09:00.316Z,14.93
2022-10-30T00:10:00.392Z,14.93
2022-10-30T00:11:00.267Z,14.95
2022-10-30T00:12:00.326Z,14.95
2022-10-30T00:13:00.301Z,14.95
2022-10-30T00:14:00.239Z,14.93
2022-10-30T00:15:00.250Z,14.93
2022-10-30T00:16:00.221Z,14.93
2022-10-30T00:17:00.211Z,14.93
2022-10-30T00:18:00.600Z,14.93
2022-10-30T00:19:00.178Z,14.93
2022-10-30T00:20:00.153Z,14.91
2022-10-30T00:21:02.905Z,14.91
2022-10-30T02:14:16.182Z,13.79
2022-10-30T02:15:16.176Z,13.77
2022-10-30T02:16:16.141Z,13.73
2022-10-30T02:17:16.138Z,13.74
2022-10-30T02:18:16.118Z,13.77
2022-10-30T02:19:16.120Z,13.70
2022-10-30T02:20:16.104Z,13.69
2022-10-30T02:21:16.095Z,13.63
2022-10-30T02:22:16.137Z,13.61
2022-10-30T02:23:16.052Z,13.58
2022-10-30T02:24:16.047Z,13.55
2022-10-30T02:25:16.056Z,13.56
2022-10-30T02:26:16.018Z,13.52
2022-10-30T02:27:15.997Z,13.47
2022-10-30T02:28:15.994Z,13.51
2022-10-30T02:29:15.989Z,13.47
2022-10-30T02:30:15.973Z,13.43
2022-10-30T02:31:15.950Z,13.43
2022-10-30T02:32:15.938Z,13.40
2022-10-30T02:33:15.936Z,13.37
2022-10-30T02:34:15.907Z,13.33
2022-10-30T02:35:15.911Z,13.32
2022-10-30T02:36:15.878Z,13.38
2022-10-30T02:37:15.883Z,13.37
2022-10-30T02:38:15.855Z,13.36
2022-10-30T02:39:15.840Z,13.38
2022-10-30T02:40:15.847Z,13.37
2022-10-30T02:41:15.818Z,13.32
2022-10-30T02:42:15.813Z,13.30
2022-10-30T02:43:15.789Z,13.27
2022-10-30T02:44:15.783Z,13.24
2022-10-30T02:45:15.776Z,13.22
2022-10-30T02:46:15.762Z,13.22
2022-10-30T02:47:15.794Z,13.22
2022-10-30T02:48:15.759Z,13.24
2022-10-30T02:49:15.716Z,13.24
2022-10-30T02:50:15.710Z,13.24
2022-10-30T02:51:15.733Z,13.22
2022-10-30T02:52:16.344Z,13.24
2022-10-30T02:53:15.661Z,13.24
2022-10-30T02:54:15.653Z,13.20
2022-10-30T02:55:15.706Z,13.22
2022-10-30T02:56:15.624Z,13.24
2022-10-30T02:57:15.611Z,13.20
2022-10-30T02:58:15.604Z,13.14
2022-10-30T02:59:15.598Z,13.11
2022-10-30T03:00:15.638Z,13.14
2022-10-30T03:01:15.661Z,13.12
2022-10-30T03:02:15.602Z,13.07
2022-10-30T03:03:17.563Z,13.06
2022-10-30T03:04:15.557Z,13.06
2022-10-30T03:05:15.537Z,13.04
2022-10-30T03:06:15.527Z,13.03
2022-10-30T03:07:15.487Z,13.02
2022-10-30T03:08:15.510Z,12.99
2022-10-30T03:09:15.480Z,12.96
2022-10-30T03:10:15.485Z,12.96
2022-10-30T03:11:15.438Z,12.93
2022-10-30T03:12:15.463Z,12.93
2022-10-30T03:13:15.406Z,12.96
2022-10-30T03:14:15.390Z,12.96
2022-10-30T03:15:15.422Z,12.95
2022-10-30T03:16:15.375Z,12.93
2022-10-30T03:17:15.365Z,12.92
2022-10-30T03:18:15.331Z,12.92
2022-10-30T03:19:15.318Z,12.92
2022-10-30T03:20:15.456Z,12.88
2022-10-30T03:21:15.295Z,12.82
2022-10-30T03:22:15.319Z,12.79
2022-10-30T03:23:15.273Z,12.75
2022-10-30T03:24:15.258Z,12.70
2022-10-30T03:25:15.290Z,12.70
2022-10-30T03:26:15.233Z,12.66
2022-10-30T03:27:15.226Z,12.64
2022-10-30T03:28:15.208Z,12.64
2022-10-30T03:29:15.223Z,12.66
2022-10-30T03:30:15.218Z,12.66
2022-10-30T03:31:15.173Z,12.67
2022-10-30T03:32:15.238Z,12.67
2022-10-30T03:33:15.142Z,12.64
2022-10-30T03:34:15.184Z,12.64
2022-10-30T03:35:15.126Z,12.63
2022-10-30T03:36:15.107Z,12.66
2022-10-30T03:37:15.090Z,12.64
2022-10-30T03:38:15.077Z,12.63
2022-10-30T03:39:15.131Z,12.63
2022-10-30T03:40:15.067Z,12.64
2022-10-30T03:41:15.035Z,12.63
2022-10-30T03:42:15.020Z,12.60
2022-10-30T03:43:15.012Z,12.57
2022-10-30T03:44:14.992Z,12.59
2022-10-30T03:45:15.089Z,12.52
2022-10-30T03:46:14.964Z,12.51
2022-10-30T03:47:14.959Z,12.56
2022-10-30T03:48:14.935Z,12.57
2022-10-30T03:49:14.934Z,12.56
2022-10-30T03:50:14.955Z,12.57
2022-10-30T03:51:14.897Z,12.60
2022-10-30T03:52:14.884Z,12.60
2022-10-30T03:53:14.908Z,12.56
2022-10-30T03:54:14.857Z,12.59
2022-10-30T03:55:14.857Z,12.59
2022-10-30T03:56:14.822Z,12.67
2022-10-30T03:57:14.943Z,12.92
2022-10-30T03:58:14.808Z,12.97
2022-10-30T03:59:14.788Z,12.97
2022-10-30T04:00:14.782Z,12.96
2022-10-30T04:01:14.973Z,12.88
2022-10-30T04:02:14.943Z,12.89
2022-10-30T04:03:14.793Z,12.93
2022-10-30T04:04:14.720Z,12.99
2022-10-30T04:05:14.722Z,13.12
2022-10-30T04:06:14.692Z,13.21
2022-10-30T04:07:14.687Z,13.24
2022-10-30T04:08:14.666Z,13.22
2022-10-30T04:09:14.778Z,13.24
2022-10-30T04:10:19.314Z,13.27
2022-10-30T04:11:15.707Z,13.27
2022-10-30T04:12:14.631Z,13.30
2022-10-30T04:13:14.631Z,13.25
2022-10-30T04:14:14.590Z,13.27
2022-10-30T04:15:14.610Z,13.27
2022-10-30T04:16:14.587Z,13.30
2022-10-30T04:17:14.634Z,13.32
2022-10-30T04:18:14.532Z,13.33
2022-10-30T04:19:14.526Z,13.46
2022-10-30T04:20:14.533Z,13.54
2022-10-30T04:21:14.507Z,13.61
2022-10-30T04:22:14.513Z,13.69
2022-10-30T04:23:14.604Z,13.69
2022-10-30T04:24:14.458Z,13.69
2022-10-30T04:25:14.468Z,13.70
2022-10-30T04:26:14.517Z,13.71
2022-10-30T04:27:14.466Z,13.73
2022-10-30T04:28:14.410Z,13.79
2022-10-30T04:29:14.483Z,13.76
2022-10-30T04:30:14.413Z,13.79
2022-10-30T04:31:14.377Z,13.80
2022-10-30T04:32:14.409Z,13.83
2022-10-30T04:33:14.345Z,13.84
2022-10-30T04:34:14.323Z,13.88
2022-10-30T04:35:14.355Z,13.94
2022-10-30T04:36:14.301Z,13.94
2022-10-30T04:37:14.290Z,13.95
2022-10-30T04:38:14.400Z,13.94
2022-10-30T04:39:14.277Z,13.91
2022-10-30T04:40:14.296Z,13.88
2022-10-30T04:41:14.236Z,13.91
2022-10-30T04:42:14.223Z,13.92
2022-10-30T04:43:14.255Z,13.91
2022-10-30T04:44:14.211Z,13.91
2022-10-30T04:45:15.288Z,13.89
2022-10-30T04:46:14.167Z,13.91
2022-10-30T04:47:14.167Z,13.89
2022-10-30T04:48:14.272Z,13.89
2022-10-30T04:49:14.141Z,13.88
2022-10-30T04:50:14.134Z,13.89
2022-10-30T04:51:14.108Z,13.91
2022-10-30T04:52:14.121Z,13.91
2022-10-30T04:53:14.092Z,13.92
2022-10-30T04:54:14.081Z,13.95
2022-10-30T04:55:14.080Z,13.95
2022-10-30T04:56:14.051Z,13.99
2022-10-30T04:57:14.069Z,14.01
2022-10-30T04:58:14.021Z,14.04
2022-10-30T04:59:14.015Z,14.04
2022-10-30T05:00:14.000Z,14.04
2022-10-30T05:01:14.083Z,13.98
2022-10-30T05:02:14.190Z,13.98
2022-10-30T05:03:14.064Z,14.01
2022-10-30T05:04:13.940Z,14.02
2022-10-30T05:05:13.951Z,14.02
2022-10-30T05:06:13.932Z,14.01
2022-10-30T05:07:13.915Z,13.98
2022-10-30T05:08:13.888Z,13.99
2022-10-30T05:09:13.919Z,13.99
2022-10-30T05:10:13.877Z,14.01
2022-10-30T05:11:13.859Z,14.01
2022-10-30T05:12:13.844Z,14.04
2022-10-30T05:13:13.865Z,14.01
2022-10-30T05:14:13.811Z,14.01
2022-10-30T05:15:13.819Z,13.98
2022-10-30T05:16:13.840Z,13.95
2022-10-30T05:17:13.791Z,13.91
2022-10-30T05:18:13.768Z,13.83
2022-10-30T05:19:13.775Z,13.77
2022-10-30T05:20:16.387Z,13.71
2022-10-30T05:21:14.801Z,13.67
2022-10-30T05:22:13.738Z,13.63
2022-10-30T05:23:13.707Z,13.65
2022-10-30T05:24:13.686Z,13.70
2022-10-30T05:25:13.691Z,13.67
2022-10-30T05:26:13.647Z,13.70
2022-10-30T05:27:13.695Z,13.70
2022-10-30T05:28:13.622Z,13.76
2022-10-30T05:29:13.642Z,13.73
2022-10-30T05:30:13.616Z,13.70
2022-10-30T05:31:13.633Z,13.63
2022-10-30T05:33:13.583Z,13.61
2022-10-30T05:34:13.549Z,13.59
2022-10-30T05:35:13.572Z,13.58
2022-10-30T05:36:13.592Z,13.59
2022-10-30T05:37:13.551Z,13.51
2022-10-30T05:38:13.514Z,13.51
2022-10-30T05:39:13.484Z,13.52
2022-10-30T05:40:13.595Z,13.52
2022-10-30T05:41:13.481Z,13.55
2022-10-30T05:42:13.984Z,13.56
2022-10-30T05:43:13.443Z,13.55
2022-10-30T05:44:13.427Z,13.49
2022-10-30T05:45:13.450Z,13.43
2022-10-30T05:46:13.445Z,13.40
2022-10-30T05:47:13.392Z,13.37
2022-10-30T05:48:13.375Z,13.36
2022-10-30T05:49:13.366Z,13.27
2022-10-30T05:50:13.428Z,13.24
2022-10-30T05:51:13.336Z,13.24
2022-10-30T05:52:13.393Z,13.20
2022-10-30T05:53:13.319Z,13.18
2022-10-30T05:54:13.307Z,13.21
2022-10-30T05:55:13.323Z,13.25
2022-10-30T05:56:13.322Z,13.36
2022-10-30T05:57:13.272Z,13.46
2022-10-30T05:58:13.240Z,13.47
2022-10-30T05:59:13.228Z,13.43
2022-10-30T06:00:13.233Z,13.37
2022-10-30T06:01:13.331Z,13.30
2022-10-30T06:02:13.204Z,13.33
2022-10-30T06:03:13.176Z,13.29
2022-10-30T06:04:13.164Z,13.25
2022-10-30T06:05:13.148Z,13.25
2022-10-30T06:06:13.245Z,13.27
2022-10-30T06:07:13.136Z,13.22
2022-10-30T06:08:13.116Z,13.21
2022-10-30T06:09:13.120Z,13.24
2022-10-30T06:10:13.079Z,13.24
2022-10-30T06:11:13.089Z,13.29
2022-10-30T06:12:13.124Z,13.24
2022-10-30T06:13:13.046Z,13.12
2022-10-30T06:14:13.042Z,13.07
2022-10-30T06:15:13.018Z,13.07
2022-10-30T06:16:13.046Z,12.97
2022-10-30T06:17:13.004Z,12.95
2022-10-30T06:18:12.984Z,12.93
2022-10-30T06:19:17.445Z,12.89
2022-10-30T06:20:13.989Z,12.88
2022-10-30T06:21:12.952Z,12.84
2022-10-30T06:22:12.924Z,12.82
2022-10-30T06:23:12.919Z,12.81
2022-10-30T06:24:12.972Z,12.78
2022-10-30T06:25:12.881Z,12.79
2022-10-30T06:26:12.898Z,12.77
2022-10-30T06:27:12.858Z,12.79
2022-10-30T06:28:12.865Z,12.79
2022-10-30T06:29:12.909Z,12.81
2022-10-30T06:30:12.881Z,12.77
2022-10-30T06:31:12.858Z,12.74
2022-10-30T06:32:12.800Z,12.74
2022-10-30T06:33:12.788Z,12.69
2022-10-30T06:34:12.823Z,12.69
2022-10-30T06:35:12.839Z,12.66
2022-10-30T06:36:12.803Z,12.64
2022-10-30T06:37:12.752Z,12.66
2022-10-30T06:38:12.730Z,12.64
2022-10-30T06:39:12.733Z,12.67
2022-10-30T06:40:12.687Z,12.71
2022-10-30T06:41:12.685Z,12.75
2022-10-30T06:42:12.687Z,12.77
2022-10-30T06:43:12.646Z,12.78
2022-10-30T06:44:12.669Z,12.77
2022-10-30T06:45:12.641Z,12.77
2022-10-30T06:46:12.651Z,12.79
2022-10-30T06:47:12.600Z,12.79
2022-10-30T06:48:12.583Z,12.81
2022-10-30T06:49:12.573Z,12.84
2022-10-30T06:50:12.607Z,12.87
2022-10-30T06:51:12.549Z,12.92
2022-10-30T06:52:12.531Z,12.96
2022-10-30T06:53:12.528Z,12.99
2022-10-30T06:54:12.506Z,13.00
2022-10-30T06:55:12.487Z,12.92
2022-10-30T06:56:12.570Z,12.92
2022-10-30T06:57:12.464Z,12.95
2022-10-30T06:58:12.457Z,12.96
2022-10-30T06:59:12.436Z,12.96
2022-10-30T07:00:12.446Z,12.99
2022-10-30T07:01:12.410Z,13.06
2022-10-30T07:02:12.461Z,13.12
2022-10-30T07:03:12.649Z,13.15
2022-10-30T07:04:12.369Z,13.20
2022-10-30T07:05:12.369Z,13.25
2022-10-30T07:06:12.370Z,13.37
2022-10-30T07:07:12.328Z,13.46
2022-10-30T07:08:12.344Z,13.54
2022-10-30T07:09:12.376Z,13.59
2022-10-30T07:10:12.290Z,13.62
2022-10-30T07:11:12.290Z,13.61
2022-10-30T07:12:12.270Z,13.63
2022-10-30T07:13:12.269Z,13.69
2022-10-30T07:14:12.253Z,13.73
2022-10-30T07:15:12.605Z,13.74
2022-10-30T07:16:12.233Z,13.79
2022-10-30T07:17:12.200Z,13.80
2022-10-30T07:18:12.185Z,13.87
2022-10-30T07:19:12.200Z,13.88
2022-10-30T07:20:12.204Z,13.92
2022-10-30T07:21:12.167Z,13.92
2022-10-30T07:22:12.142Z,13.94
2022-10-30T07:23:12.153Z,13.95
2022-10-30T07:24:12.116Z,13.95
2022-10-30T07:25:12.094Z,13.96
2022-10-30T07:26:12.174Z,13.98
2022-10-30T07:27:12.074Z,14.01
2022-10-30T07:28:12.055Z,14.06
2022-10-30T07:29:12.052Z,14.07
2022-10-30T07:30:12.091Z,14.12
2022-10-30T07:31:12.079Z,14.14
2022-10-30T07:32:12.003Z,14.16
2022-10-30T07:33:11.990Z,14.20
2022-10-30T07:34:11.981Z,14.21
2022-10-30T07:35:11.987Z,14.28
2022-10-30T07:36:12.032Z,14.29
2022-10-30T07:37:11.957Z,14.32
2022-10-30T07:38:11.949Z,14.35
2022-10-30T07:39:11.946Z,14.38
2022-10-30T07:40:13.202Z,14.43
2022-10-30T07:41:11.901Z,14.44
2022-10-30T07:42:11.897Z,14.49
2022-10-30T07:43:11.863Z,14.49
2022-10-30T07:44:11.864Z,14.54
2022-10-30T07:45:11.840Z,14.54
2022-10-30T07:46:11.839Z,14.57
2022-10-30T07:47:11.887Z,14.57
2022-10-30T07:48:11.803Z,14.64
2022-10-30T07:49:11.791Z,14.67
2022-10-30T07:50:11.781Z,14.69
2022-10-30T07:51:11.807Z,14.72
2022-10-30T07:52:16.348Z,14.74
2022-10-30T07:53:12.731Z,14.78
2022-10-30T07:54:11.742Z,14.80
2022-10-30T07:55:11.719Z,14.83
2022-10-30T07:56:11.741Z,14.87
2022-10-30T07:57:11.696Z,14.88
2022-10-30T07:58:11.671Z,14.94
2022-10-30T07:59:11.648Z,15.01
2022-10-30T08:00:11.670Z,15.03
2022-10-30T08:01:11.766Z,15.05
2022-10-30T08:02:11.677Z,15.09
2022-10-30T08:03:11.606Z,15.12
2022-10-30T08:04:11.605Z,15.12
2022-10-30T08:05:11.610Z,15.11
2022-10-30T08:06:11.583Z,15.13
2022-10-30T08:07:11.557Z,15.12
2022-10-30T08:08:11.536Z,15.15
2022-10-30T08:09:11.580Z,15.12
2022-10-30T08:10:11.543Z,15.15
2022-10-30T08:11:11.516Z,15.15
2022-10-30T08:12:11.497Z,15.17
2022-10-30T08:13:11.468Z,15.15
2022-10-30T08:14:11.461Z,15.17
2022-10-30T08:15:11.482Z,15.19
2022-10-30T08:16:11.452Z,15.19
2022-10-30T08:17:11.431Z,15.21
2022-10-30T08:18:11.449Z,15.23
2022-10-30T08:19:11.388Z,15.24
2022-10-30T08:20:11.432Z,15.24
2022-10-30T08:21:11.367Z,15.24
2022-10-30T08:22:11.360Z,15.26
2022-10-30T08:23:11.429Z,15.27
2022-10-30T08:24:11.336Z,15.28
2022-10-30T08:25:11.316Z,15.28
2022-10-30T08:26:11.317Z,15.33
2022-10-30T08:27:11.320Z,15.33
2022-10-30T08:28:11.293Z,15.35
2022-10-30T08:29:11.266Z,15.35
2022-10-30T08:30:11.255Z,15.38
2022-10-30T08:31:11.297Z,15.38
2022-10-30T08:32:11.246Z,15.43
2022-10-30T08:33:11.208Z,15.43
2022-10-30T08:34:11.201Z,15.43
2022-10-30T08:35:12.630Z,15.45
2022-10-30T08:36:11.242Z,15.45
2022-10-30T08:37:11.192Z,15.46
2022-10-30T08:38:11.147Z,15.48
2022-10-30T08:39:11.135Z,15.51
2022-10-30T08:40:11.129Z,15.51
2022-10-30T08:41:11.315Z,15.51
2022-10-30T08:42:11.099Z,15.54
2022-10-30T08:43:11.080Z,15.56
2022-10-30T08:44:11.099Z,15.59
2022-10-30T08:45:11.054Z,15.64
2022-10-30T08:46:11.120Z,15.68
2022-10-30T08:47:11.052Z,15.70
2022-10-30T08:48:11.024Z,15.76
2022-10-30T08:49:11.026Z,15.79
2022-10-30T08:50:11.070Z,15.82
2022-10-30T08:51:10.995Z,15.86
2022-10-30T08:52:10.980Z,15.89
2022-10-30T08:53:10.953Z,15.93
2022-10-30T08:54:10.949Z,15.99
2022-10-30T08:55:10.958Z,16.03
2022-10-30T08:56:10.918Z,16.07
2022-10-30T08:57:10.927Z,16.14
2022-10-30T08:58:10.896Z,16.18
2022-10-30T08:59:10.879Z,16.23
2022-10-30T09:00:10.885Z,16.26
2022-10-30T09:01:10.886Z,16.31
2022-10-30T09:02:10.913Z,16.34
2022-10-30T09:03:10.828Z,16.38
2022-10-30T09:04:10.815Z,16.45
2022-10-30T09:05:10.853Z,16.50
2022-10-30T09:06:10.781Z,16.55
2022-10-30T09:07:12.962Z,16.58
2022-10-30T09:08:10.772Z,16.63
2022-10-30T09:09:10.745Z,16.68
2022-10-30T09:10:10.761Z,16.74
2022-10-30T09:11:10.711Z,16.78
2022-10-30T09:12:10.712Z,16.86
2022-10-30T09:13:10.699Z,16.90
2022-10-30T09:14:10.718Z,16.95
2022-10-30T09:15:10.675Z,16.98
2022-10-30T09:16:10.654Z,17.04
2022-10-30T09:17:10.634Z,17.06
2022-10-30T09:18:10.624Z,17.11
2022-10-30T09:19:14.732Z,17.15
2022-10-30T09:20:11.608Z,17.23
2022-10-30T09:21:10.583Z,17.23
2022-10-30T09:22:10.569Z,17.28
2022-10-30T09:23:10.604Z,17.33
2022-10-30T09:24:10.558Z,17.40
2022-10-30T09:25:10.536Z,17.43
2022-10-30T09:26:10.546Z,17.51
2022-10-30T09:27:10.502Z,17.63
2022-10-30T09:28:10.499Z,17.71
2022-10-30T09:29:10.477Z,17.74
2022-10-30T09:30:10.516Z,17.79
2022-10-30T09:31:10.452Z,17.87
2022-10-30T09:32:10.474Z,17.95
2022-10-30T09:33:10.422Z,18.02
2022-10-30T09:34:10.420Z,18.03
2022-10-30T09:35:10.432Z,17.94
2022-10-30T09:36:10.391Z,17.89
2022-10-30T09:37:10.381Z,17.84
2022-10-30T09:38:10.372Z,17.84
2022-10-30T09:39:10.357Z,17.85
2022-10-30T09:40:10.383Z,17.99
2022-10-30T09:41:10.334Z,18.09
2022-10-30T09:42:10.353Z,18.09
2022-10-30T09:43:10.307Z,18.09
2022-10-30T09:44:10.392Z,18.13
2022-10-30T09:46:11.254Z,18.21
2022-10-30T09:47:10.257Z,18.36
2022-10-30T09:48:10.237Z,18.49
2022-10-30T09:50:10.225Z,18.54
2022-10-30T09:51:10.229Z,18.65
2022-10-30T09:52:10.260Z,18.70
2022-10-30T09:53:10.160Z,18.70
2022-10-30T09:54:10.158Z,18.74
2022-10-30T09:55:10.147Z,18.80
2022-10-30T09:56:10.260Z,18.86
2022-10-30T09:57:10.108Z,18.82
2022-10-30T09:58:10.097Z,18.79
2022-10-30T09:59:10.084Z,18.80
2022-10-30T10:00:10.115Z,18.83
2022-10-30T10:01:10.178Z,18.92
2022-10-30T10:02:10.133Z,19.08
2022-10-30T10:03:10.034Z,19.20
2022-10-30T10:04:10.039Z,19.31
2022-10-30T10:05:10.044Z,19.39
2022-10-30T10:06:10.104Z,19.24
2022-10-30T10:07:09.996Z,19.14
2022-10-30T10:08:09.971Z,19.28
2022-10-30T10:09:09.958Z,19.31
2022-10-30T10:10:10.060Z,19.28
2022-10-30T10:11:09.941Z,19.33
2022-10-30T10:12:09.923Z,19.50
2022-10-30T10:13:09.957Z,19.53
2022-10-30T10:14:09.906Z,19.65
2022-10-30T10:15:09.880Z,19.69
2022-10-30T10:16:09.881Z,19.58
2022-10-30T10:17:09.856Z,19.50
2022-10-30T10:18:09.921Z,19.50
2022-10-30T10:19:09.817Z,19.60
2022-10-30T10:20:09.812Z,19.61
2022-10-30T10:21:09.805Z,19.70
2022-10-30T10:22:09.785Z,19.90
2022-10-30T10:23:09.878Z,20.06
2022-10-30T10:24:09.763Z,20.10
2022-10-30T10:25:09.751Z,20.18
2022-10-30T10:26:09.748Z,20.20
2022-10-30T10:27:09.855Z,20.21
2022-10-30T10:28:09.709Z,20.25
2022-10-30T10:29:09.694Z,20.23
2022-10-30T10:30:09.735Z,20.25
2022-10-30T10:31:09.684Z,20.31
2022-10-30T10:32:09.646Z,20.42
2022-10-30T10:33:09.712Z,20.51
2022-10-30T10:34:09.650Z,20.31
2022-10-30T10:35:09.660Z,20.18
2022-10-30T10:36:09.612Z,20.15
2022-10-30T10:37:09.609Z,20.21
2022-10-30T10:38:09.574Z,20.28
2022-10-30T10:39:09.562Z,20.41
2022-10-30T10:40:09.602Z,20.53
2022-10-30T10:41:09.560Z,20.56
2022-10-30T10:42:09.539Z,20.61
2022-10-30T10:43:09.511Z,20.68
2022-10-30T10:44:09.497Z,20.79
2022-10-30T10:45:09.501Z,20.83
2022-10-30T10:46:09.523Z,20.83
2022-10-30T10:47:09.461Z,20.79
2022-10-30T10:48:09.458Z,20.72
2022-10-30T10:49:09.489Z,20.69
2022-10-30T10:50:09.414Z,20.79
2022-10-30T10:51:09.425Z,20.84
2022-10-30T10:52:09.470Z,20.76
2022-10-30T10:53:09.410Z,20.74
2022-10-30T10:54:09.371Z,20.65
2022-10-30T10:55:09.357Z,20.68
2022-10-30T10:56:09.362Z,20.69
2022-10-30T10:57:09.331Z,20.81
2022-10-30T10:58:09.317Z,21.01
2022-10-30T10:59:09.302Z,21.13
2022-10-30T11:00:09.312Z,21.23
2022-10-30T11:01:09.391Z,21.30
2022-10-30T11:02:09.430Z,21.41
2022-10-30T11:03:09.303Z,21.45
2022-10-30T11:04:09.278Z,21.48
2022-10-30T11:05:09.234Z,21.54
2022-10-30T11:06:09.253Z,21.66
2022-10-30T11:07:09.213Z,21.61
2022-10-30T11:08:09.186Z,21.60
2022-10-30T11:09:09.190Z,21.66
2022-10-30T11:10:09.181Z,21.78
2022-10-30T11:11:09.164Z,21.79
2022-10-30T11:12:09.138Z,21.90
2022-10-30T11:13:09.159Z,21.94
2022-10-30T11:14:09.129Z,21.98
2022-10-30T11:15:09.097Z,21.98
2022-10-30T11:16:09.099Z,21.92
2022-10-30T11:17:09.101Z,21.88
2022-10-30T11:18:09.062Z,21.98
2022-10-30T11:19:09.181Z,22.10
2022-10-30T11:20:09.030Z,22.01
2022-10-30T11:21:09.040Z,21.94
2022-10-30T11:22:09.002Z,22.02
2022-10-30T11:23:09.093Z,22.12
2022-10-30T11:24:09.003Z,22.20
2022-10-30T11:25:08.962Z,22.35
2022-10-30T11:26:08.968Z,22.31
2022-10-30T11:27:08.944Z,22.16
2022-10-30T11:28:09.073Z,22.28
2022-10-30T11:29:08.936Z,22.43
2022-10-30T11:30:08.893Z,22.49
2022-10-30T11:31:08.899Z,22.49
2022-10-30T11:32:08.961Z,22.49
2022-10-30T11:33:08.868Z,22.49
2022-10-30T11:34:08.853Z,22.52
2022-10-30T11:35:08.838Z,22.57
2022-10-30T11:36:14.590Z,22.60
2022-10-30T11:37:09.827Z,22.59
2022-10-30T11:38:08.794Z,22.62
2022-10-30T11:39:08.791Z,22.71
2022-10-30T11:40:08.820Z,22.59
2022-10-30T11:41:08.768Z,22.43
2022-10-30T11:42:08.798Z,22.50
2022-10-30T11:43:08.761Z,22.47
2022-10-30T11:44:08.849Z,22.57
2022-10-30T11:45:08.713Z,22.68
2022-10-30T11:46:08.686Z,22.75
2022-10-30T11:47:08.705Z,22.78
2022-10-30T11:48:13.488Z,22.80
2022-10-30T11:49:09.662Z,22.82
2022-10-30T11:50:08.642Z,22.87
2022-10-30T11:51:08.742Z,22.87
2022-10-30T11:52:08.699Z,22.86
2022-10-30T11:53:08.605Z,22.90
2022-10-30T11:54:08.590Z,22.97
2022-10-30T11:55:08.666Z,23.04
2022-10-30T11:56:08.571Z,23.04
2022-10-30T11:57:08.571Z,23.02
2022-10-30T11:58:08.550Z,22.97
2022-10-30T11:59:08.547Z,22.94
2022-10-30T12:00:08.637Z,23.02
2022-10-30T12:01:08.518Z,23.07
2022-10-30T12:02:08.649Z,23.14
2022-10-30T12:03:08.500Z,23.14
2022-10-30T12:04:08.467Z,23.12
2022-10-30T12:05:08.505Z,23.07
2022-10-30T12:06:08.570Z,23.05
2022-10-30T12:07:08.446Z,22.93
2022-10-30T12:08:08.409Z,22.87
2022-10-30T12:09:08.417Z,22.80
2022-10-30T12:10:08.385Z,22.82
2022-10-30T12:11:08.397Z,22.77
2022-10-30T12:12:08.501Z,22.71
2022-10-30T12:13:08.356Z,22.75
2022-10-30T12:14:08.337Z,22.86
2022-10-30T12:15:08.363Z,22.94
2022-10-30T12:16:08.321Z,23.08
2022-10-30T12:17:08.297Z,23.15
2022-10-30T12:18:08.286Z,23.26
2022-10-30T12:19:08.275Z,23.35
2022-10-30T12:20:08.361Z,23.46
2022-10-30T12:21:08.275Z,23.64
2022-10-30T12:22:09.878Z,23.80
2022-10-30T12:23:08.285Z,23.94
2022-10-30T12:24:08.198Z,23.92
2022-10-30T12:25:08.261Z,23.82
2022-10-30T12:26:08.192Z,23.85
2022-10-30T12:27:08.191Z,23.85
2022-10-30T12:28:08.177Z,23.80
2022-10-30T12:29:08.155Z,23.76
2022-10-30T12:30:09.205Z,23.60
2022-10-30T12:31:08.153Z,23.60
2022-10-30T12:32:08.101Z,23.45
2022-10-30T12:33:08.118Z,23.46
2022-10-30T12:34:08.100Z,23.67
2022-10-30T12:35:08.065Z,23.80
2022-10-30T12:36:08.063Z,23.97
2022-10-30T12:37:08.042Z,24.00
2022-10-30T12:38:08.040Z,23.86
2022-10-30T12:39:08.013Z,23.82
2022-10-30T12:40:08.016Z,23.83
2022-10-30T12:41:07.986Z,23.86
2022-10-30T12:42:07.987Z,23.95
2022-10-30T12:43:07.971Z,24.00
2022-10-30T12:44:07.982Z,24.04
2022-10-30T12:45:07.956Z,24.00
2022-10-30T12:46:07.920Z,23.92
2022-10-30T12:47:07.922Z,23.85
2022-10-30T12:48:07.907Z,23.85
2022-10-30T12:49:07.911Z,23.80
2022-10-30T12:50:07.889Z,23.83
2022-10-30T12:51:07.864Z,23.80
2022-10-30T12:52:07.850Z,23.79
2022-10-30T12:53:07.852Z,23.76
2022-10-30T12:54:07.843Z,23.77
2022-10-30T12:55:07.818Z,23.77
2022-10-30T12:56:07.802Z,23.71
2022-10-30T12:57:07.794Z,23.62
2022-10-30T12:58:07.776Z,23.52
2022-10-30T12:59:07.774Z,23.53
2022-10-30T13:00:07.750Z,23.53
2022-10-30T13:01:07.850Z,23.46
2022-10-30T13:02:07.838Z,23.60
2022-10-30T13:03:07.718Z,23.71
2022-10-30T13:04:07.807Z,23.80
2022-10-30T13:05:07.685Z,23.76
2022-10-30T13:06:07.682Z,23.72
2022-10-30T13:07:07.681Z,23.72
2022-10-30T13:08:07.646Z,23.80
2022-10-30T13:09:07.714Z,23.77
2022-10-30T13:10:07.628Z,23.77
2022-10-30T13:11:07.621Z,23.80
2022-10-30T13:12:07.588Z,23.89
2022-10-30T13:13:07.587Z,23.89
2022-10-30T13:14:07.606Z,24.01
2022-10-30T13:15:07.557Z,24.02
2022-10-30T13:16:07.539Z,24.07
2022-10-30T13:17:07.531Z,24.13
2022-10-30T13:18:07.562Z,24.29
2022-10-30T13:19:07.513Z,24.35
2022-10-30T13:20:07.502Z,24.38
2022-10-30T13:21:07.515Z,24.34
2022-10-30T13:22:07.487Z,24.24
2022-10-30T13:23:07.457Z,24.17
2022-10-30T13:24:07.546Z,24.16
2022-10-30T13:25:07.429Z,24.04
2022-10-30T13:26:07.449Z,24.08
2022-10-30T13:27:07.408Z,24.13
2022-10-30T13:28:07.390Z,24.22
2022-10-30T13:29:07.425Z,24.16
2022-10-30T13:30:07.366Z,24.07
2022-10-30T13:31:07.354Z,24.05
2022-10-30T13:32:07.337Z,23.97
2022-10-30T13:33:07.325Z,23.95
2022-10-30T13:34:07.427Z,23.95
2022-10-30T13:35:07.309Z,23.94
2022-10-30T13:36:07.296Z,24.01
2022-10-30T13:37:07.267Z,24.05
2022-10-30T13:38:07.261Z,24.08
2022-10-30T13:39:07.327Z,24.12
2022-10-30T13:40:07.251Z,24.22
2022-10-30T13:41:07.229Z,24.31
2022-10-30T13:42:07.206Z,24.31
2022-10-30T13:43:07.233Z,24.32
2022-10-30T13:44:07.205Z,24.08
2022-10-30T13:45:07.184Z,23.95
2022-10-30T13:46:07.152Z,23.98
2022-10-30T13:47:07.148Z,24.10
2022-10-30T13:48:07.137Z,24.13
2022-10-30T13:49:07.145Z,24.14
2022-10-30T13:50:07.106Z,24.16
2022-10-30T13:51:07.100Z,24.04
2022-10-30T13:52:07.091Z,23.94
2022-10-30T13:53:07.068Z,23.87
2022-10-30T13:54:07.102Z,23.92
2022-10-30T13:55:07.038Z,23.85
2022-10-30T13:56:07.031Z,23.87
2022-10-30T13:57:07.027Z,23.89
2022-10-30T13:58:07.060Z,23.85
2022-10-30T13:59:07.011Z,23.77
2022-10-30T14:00:06.980Z,23.77
2022-10-30T14:01:07.030Z,23.80
2022-10-30T14:02:07.137Z,23.87
2022-10-30T14:03:07.100Z,23.92
2022-10-30T14:04:06.936Z,23.95
2022-10-30T14:05:07.060Z,23.98
2022-10-30T14:06:06.905Z,23.98
2022-10-30T14:07:06.890Z,23.90
2022-10-30T14:08:06.886Z,23.98
2022-10-30T14:09:06.863Z,24.04
2022-10-30T14:10:06.911Z,24.08
2022-10-30T14:11:06.862Z,24.17
2022-10-30T14:12:06.824Z,24.31
2022-10-30T14:13:06.836Z,24.47
2022-10-30T14:14:06.809Z,24.45
2022-10-30T14:15:06.836Z,24.49
2022-10-30T14:16:06.796Z,24.56
2022-10-30T14:17:06.786Z,24.52
2022-10-30T14:18:06.751Z,24.52
2022-10-30T14:19:06.862Z,24.52
2022-10-30T14:20:12.579Z,24.50
2022-10-30T14:21:07.714Z,24.39
2022-10-30T14:22:06.884Z,24.31
2022-10-30T14:23:06.695Z,24.26
2022-10-30T14:24:06.689Z,24.20
2022-10-30T14:25:06.673Z,24.19
2022-10-30T14:26:06.682Z,24.23
2022-10-30T14:27:06.775Z,24.24
2022-10-30T14:28:06.634Z,24.14
2022-10-30T14:29:06.614Z,24.04
2022-10-30T14:30:06.602Z,24.05
2022-10-30T14:31:06.594Z,24.07
2022-10-30T14:32:06.565Z,24.05
2022-10-30T14:33:06.554Z,23.98
2022-10-30T14:34:06.580Z,23.90
2022-10-30T14:35:06.703Z,23.92
2022-10-30T14:36:06.521Z,23.83
2022-10-30T14:37:06.524Z,23.76
2022-10-30T14:38:06.503Z,23.72
2022-10-30T14:39:06.504Z,23.77
2022-10-30T14:40:06.759Z,23.85
2022-10-30T14:41:11.299Z,23.87
2022-10-30T14:42:06.452Z,23.89
2022-10-30T14:43:06.440Z,23.76
2022-10-30T14:44:06.423Z,23.64
2022-10-30T14:45:06.452Z,23.57
2022-10-30T14:46:06.391Z,23.43
2022-10-30T14:47:06.373Z,23.35